createdAt,value
2018-07-15T00:00:23.127Z,4.00
2018-07-15T00:01:23.112Z,4.00
2018-07-15T00:02:23.099Z,4.00
2018-07-15T00:03:23.085Z,4.00
2018-07-15T00:04:23.069Z,4.00
2018-07-15T00:05:23.062Z,4.00
2018-07-15T00:06:23.044Z,4.00
2018-07-15T00:07:23.038Z,4.00
2018-07-15T00:08:23.015Z,4.00
2018-07-15T00:09:23.002Z,4.00
2018-07-15T00:10:22.995Z,4.00
2018-07-15T00:11:22.980Z,4.00
2018-07-15T00:12:22.961Z,4.00
2018-07-15T00:13:22.947Z,4.00
2018-07-15T00:14:22.939Z,4.00
2018-07-15T00:15:22.922Z,4.00
2018-07-15T00:16:22.907Z,4.00
2018-07-15T00:17:22.892Z,4.00
2018-07-15T00:18:22.880Z,4.00
2018-07-15T00:19:22.874Z,4.00
2018-07-15T00:20:22.851Z,4.00
2018-07-15T00:21:22.836Z,4.00
2018-07-15T00:22:22.874Z,4.00
2018-07-15T00:23:22.807Z,4.00
2018-07-15T00:24:22.794Z,4.00
2018-07-15T00:25:22.778Z,4.00
2018-07-15T00:26:22.767Z,4.00
2018-07-15T00:27:22.756Z,4.00
2018-07-15T00:28:22.737Z,4.00
2018-07-15T00:29:22.733Z,4.00
2018-07-15T00:30:22.708Z,4.00
2018-07-15T00:31:22.711Z,4.00
2018-07-15T00:32:22.683Z,4.00
2018-07-15T00:33:22.674Z,4.00
2018-07-15T00:34:22.653Z,4.00
2018-07-15T00:35:22.643Z,4.00
2018-07-15T00:36:22.624Z,4.00
2018-07-15T00:37:22.612Z,4.00
2018-07-15T00:38:22.597Z,4.00
2018-07-15T00:39:22.598Z,4.00
2018-07-15T00:40:22.570Z,4.00
2018-07-15T00:41:22.561Z,4.00
2018-07-15T00:42:22.542Z,4.00
2018-07-15T00:43:22.528Z,4.00
2018-07-15T00:44:22.516Z,4.00
2018-07-15T00:45:22.500Z,4.00
2018-07-15T00:46:22.485Z,4.00
2018-07-15T00:47:22.470Z,4.00
2018-07-15T00:48:22.459Z,4.00
2018-07-15T00:49:22.446Z,4.00
2018-07-15T00:50:22.440Z,4.00
2018-07-15T00:51:22.416Z,4.00
2018-07-15T00:52:22.400Z,4.00
2018-07-15T00:53:22.387Z,4.00
2018-07-15T00:54:22.375Z,4.00
2018-07-15T00:55:22.441Z,4.00
2018-07-15T00:56:22.348Z,4.00
2018-07-15T00:57:22.330Z,4.00
2018-07-15T00:58:22.317Z,4.00
2018-07-15T00:59:22.303Z,4.00
2018-07-15T01:00:22.288Z,4.00
2018-07-15T01:01:22.275Z,4.00
2018-07-15T01:02:22.264Z,4.00
2018-07-15T01:03:22.244Z,4.00
2018-07-15T01:04:22.236Z,4.00
2018-07-15T01:05:22.219Z,4.00
2018-07-15T01:06:22.199Z,4.00
2018-07-15T01:07:22.188Z,4.00
2018-07-15T01:08:22.180Z,4.00
2018-07-15T01:09:22.158Z,4.00
2018-07-15T01:10:22.143Z,4.00
2018-07-15T01:11:22.129Z,4.00
2018-07-15T01:12:22.116Z,4.00
2018-07-15T01:13:22.101Z,4.00
2018-07-15T01:14:22.086Z,4.00
2018-07-15T01:15:22.081Z,4.00
2018-07-15T01:16:22.066Z,4.00
2018-07-15T01:17:22.047Z,4.00
2018-07-15T01:18:22.034Z,4.00
2018-07-15T01:19:22.017Z,4.00
2018-07-15T01:20:22.001Z,4.00
2018-07-15T01:21:21.993Z,4.00
2018-07-15T01:22:21.971Z,4.00
2018-07-15T01:23:21.957Z,4.00
2018-07-15T01:24:21.947Z,4.00
2018-07-15T01:25:21.930Z,4.00
2018-07-15T01:26:21.916Z,4.00
2018-07-15T01:27:21.901Z,4.00
2018-07-15T01:28:21.894Z,4.00
2018-07-15T01:29:21.874Z,4.00
2018-07-15T01:30:21.863Z,4.00
2018-07-15T01:31:21.845Z,4.00
2018-07-15T01:32:21.830Z,4.00
2018-07-15T01:33:21.816Z,4.00
2018-07-15T01:34:21.807Z,4.00
2018-07-15T01:35:21.789Z,4.00
2018-07-15T01:36:21.772Z,4.00
2018-07-15T01:37:21.762Z,4.00
2018-07-15T01:38:21.741Z,4.00
2018-07-15T01:39:21.730Z,4.00
2018-07-15T01:40:21.713Z,4.00
2018-07-15T01:41:21.701Z,4.00
2018-07-15T01:42:21.684Z,4.00
2018-07-15T01:43:21.671Z,4.00
2018-07-15T01:44:21.657Z,4.00
2018-07-15T01:45:21.792Z,4.00
2018-07-15T01:46:21.627Z,4.00
2018-07-15T01:47:21.612Z,4.00
2018-07-15T01:48:21.601Z,4.00
2018-07-15T01:49:21.609Z,4.00
2018-07-15T01:50:21.584Z,4.00
2018-07-15T01:51:21.564Z,4.00
2018-07-15T01:52:21.540Z,4.00
2018-07-15T01:53:21.526Z,4.00
2018-07-15T01:54:21.510Z,4.00
2018-07-15T01:55:21.497Z,4.00
2018-07-15T01:56:21.481Z,4.00
2018-07-15T01:57:21.468Z,4.00
2018-07-15T01:58:21.453Z,4.00
2018-07-15T01:59:21.443Z,4.00
2018-07-15T02:00:21.423Z,4.00
2018-07-15T02:01:21.417Z,4.00
2018-07-15T02:02:21.395Z,4.00
2018-07-15T02:03:21.378Z,4.00
2018-07-15T02:04:21.366Z,4.00
2018-07-15T02:05:21.352Z,4.00
2018-07-15T02:06:21.335Z,4.00
2018-07-15T02:07:21.329Z,4.00
2018-07-15T02:08:21.305Z,4.00
2018-07-15T02:09:21.294Z,4.00
2018-07-15T02:10:21.275Z,4.00
2018-07-15T02:11:21.293Z,4.00
2018-07-15T02:12:21.247Z,4.00
2018-07-15T02:13:21.233Z,4.00
2018-07-15T02:14:21.218Z,4.00
2018-07-15T02:15:21.204Z,4.00
2018-07-15T02:16:21.189Z,4.00
2018-07-15T02:17:21.173Z,4.00
2018-07-15T02:18:21.159Z,4.00
2018-07-15T02:19:21.145Z,4.00
2018-07-15T02:20:21.133Z,4.00
2018-07-15T02:21:21.117Z,4.00
2018-07-15T02:22:21.102Z,4.00
2018-07-15T02:23:21.085Z,4.00
2018-07-15T02:24:21.071Z,4.00
2018-07-15T02:25:21.057Z,4.00
2018-07-15T02:26:21.053Z,4.00
2018-07-15T02:27:21.031Z,4.00
2018-07-15T02:28:21.028Z,4.00
2018-07-15T02:29:20.998Z,4.00
2018-07-15T02:30:20.983Z,8.00
2018-07-15T02:31:20.985Z,8.00
2018-07-15T02:32:20.953Z,4.00
2018-07-15T02:33:20.938Z,4.00
2018-07-15T02:34:20.923Z,4.00
2018-07-15T02:35:20.909Z,4.00
2018-07-15T02:36:20.893Z,4.00
2018-07-15T02:37:20.880Z,4.00
2018-07-15T02:38:20.863Z,4.00
2018-07-15T02:39:20.849Z,4.00
2018-07-15T02:40:20.840Z,4.00
2018-07-15T02:41:20.819Z,4.00
2018-07-15T02:42:20.814Z,8.00
2018-07-15T02:43:20.789Z,8.00
2018-07-15T02:44:20.775Z,8.00
2018-07-15T02:45:20.761Z,4.00
2018-07-15T02:46:20.748Z,8.00
2018-07-15T02:47:20.833Z,8.00
2018-07-15T02:48:20.715Z,8.00
2018-07-15T02:49:20.702Z,8.00
2018-07-15T02:50:20.685Z,8.00
2018-07-15T02:51:20.673Z,8.00
2018-07-15T02:52:20.657Z,12.00
2018-07-15T02:53:20.641Z,8.00
2018-07-15T02:54:20.626Z,8.00
2018-07-15T02:55:20.610Z,16.00
2018-07-15T02:56:20.596Z,16.00
2018-07-15T02:57:20.580Z,12.00
2018-07-15T02:58:20.569Z,16.00
2018-07-15T02:59:20.552Z,20.00
2018-07-15T03:00:20.537Z,20.00
2018-07-15T03:01:20.528Z,24.00
2018-07-15T03:02:20.506Z,24.00
2018-07-15T03:03:20.491Z,24.00
2018-07-15T03:04:20.475Z,24.00
2018-07-15T03:05:20.472Z,28.00
2018-07-15T03:06:20.449Z,32.00
2018-07-15T03:07:20.493Z,36.00
2018-07-15T03:08:20.416Z,40.00
2018-07-15T03:09:20.404Z,44.00
2018-07-15T03:10:20.385Z,52.00
2018-07-15T03:11:20.371Z,60.00
2018-07-15T03:12:20.356Z,64.00
2018-07-15T03:13:20.341Z,68.00
2018-07-15T03:14:20.327Z,76.00
2018-07-15T03:15:20.312Z,84.00
2018-07-15T03:16:20.295Z,96.00
2018-07-15T03:17:20.395Z,100.00
2018-07-15T03:18:20.265Z,112.00
2018-07-15T03:19:20.259Z,120.00
2018-07-15T03:20:20.235Z,132.00
2018-07-15T03:21:20.219Z,140.00
2018-07-15T03:22:20.203Z,156.00
2018-07-15T03:23:20.190Z,168.00
2018-07-15T03:24:20.175Z,180.00
2018-07-15T03:25:20.160Z,196.00
2018-07-15T03:26:20.144Z,212.00
2018-07-15T03:27:20.136Z,228.00
2018-07-15T03:28:20.122Z,244.00
2018-07-15T03:29:20.101Z,260.00
2018-07-15T03:30:20.093Z,280.00
2018-07-15T03:31:20.066Z,300.00
2018-07-15T03:32:20.051Z,320.00
2018-07-15T03:33:20.036Z,340.00
2018-07-15T03:34:20.020Z,360.00
2018-07-15T03:35:20.014Z,384.00
2018-07-15T03:36:19.990Z,408.00
2018-07-15T03:37:19.976Z,432.00
2018-07-15T03:38:19.959Z,456.00
2018-07-15T03:39:19.946Z,480.00
2018-07-15T03:40:19.930Z,504.00
2018-07-15T03:41:19.922Z,532.00
2018-07-15T03:42:19.900Z,560.00
2018-07-15T03:43:19.884Z,588.00
2018-07-15T03:44:19.869Z,612.00
2018-07-15T03:45:19.853Z,640.00
2018-07-15T03:46:19.837Z,672.00
2018-07-15T03:47:19.823Z,700.00
2018-07-15T03:48:19.808Z,728.00
2018-07-15T03:49:19.801Z,756.00
2018-07-15T03:50:19.777Z,788.00
2018-07-15T03:51:19.760Z,824.00
2018-07-15T03:52:19.747Z,856.00
2018-07-15T03:53:19.732Z,884.00
2018-07-15T03:54:19.717Z,920.00
2018-07-15T03:55:19.700Z,952.00
2018-07-15T03:56:19.684Z,984.00
2018-07-15T03:57:19.670Z,1012.00
2018-07-15T03:58:19.654Z,1048.00
2018-07-15T03:59:19.643Z,1076.00
2018-07-15T04:00:19.625Z,1108.00
2018-07-15T04:01:19.609Z,1136.00
2018-07-15T04:02:19.593Z,1172.00
2018-07-15T04:03:19.577Z,1200.00
2018-07-15T04:04:19.575Z,1228.00
2018-07-15T04:05:19.555Z,1260.00
2018-07-15T04:06:19.530Z,1292.00
2018-07-15T04:07:19.517Z,1324.00
2018-07-15T04:08:19.509Z,1360.00
2018-07-15T04:09:19.489Z,1388.00
2018-07-15T04:10:19.471Z,1424.00
2018-07-15T04:11:19.455Z,1452.00
2018-07-15T04:12:19.450Z,1484.00
2018-07-15T04:13:19.425Z,1516.00
2018-07-15T04:14:19.409Z,1544.00
2018-07-15T04:15:19.398Z,1580.00
2018-07-15T04:16:19.396Z,1612.00
2018-07-15T04:17:19.372Z,1640.00
2018-07-15T04:18:19.358Z,1668.00
2018-07-15T04:19:19.332Z,1696.00
2018-07-15T04:20:19.319Z,1724.00
2018-07-15T04:21:19.306Z,1756.00
2018-07-15T04:22:19.287Z,1788.00
2018-07-15T04:23:19.291Z,1808.00
2018-07-15T04:24:19.264Z,1840.00
2018-07-15T04:25:19.251Z,1868.00
2018-07-15T04:26:19.227Z,1892.00
2018-07-15T04:27:19.211Z,1920.00
2018-07-15T04:28:19.273Z,1948.00
2018-07-15T04:29:19.181Z,1968.00
2018-07-15T04:30:19.166Z,1996.00
2018-07-15T04:31:19.150Z,2020.00
2018-07-15T04:32:19.136Z,2048.00
2018-07-15T04:33:19.120Z,2068.00
2018-07-15T04:34:19.104Z,2092.00
2018-07-15T04:35:19.091Z,2112.00
2018-07-15T04:36:19.075Z,2140.00
2018-07-15T04:37:19.061Z,2168.00
2018-07-15T04:38:19.045Z,2196.00
2018-07-15T04:39:19.027Z,2224.00
2018-07-15T04:40:19.025Z,2244.00
2018-07-15T04:41:18.998Z,2272.00
2018-07-15T04:42:18.983Z,2288.00
2018-07-15T04:43:18.966Z,2324.00
2018-07-15T04:44:18.950Z,2344.00
2018-07-15T04:45:18.937Z,2376.00
2018-07-15T04:46:18.924Z,2392.00
2018-07-15T04:47:18.907Z,2412.00
2018-07-15T04:48:18.899Z,2436.00
2018-07-15T04:49:18.879Z,2464.00
2018-07-15T04:50:18.873Z,2504.00
2018-07-15T04:51:18.845Z,2516.00
2018-07-15T04:52:18.830Z,2536.00
2018-07-15T04:53:18.822Z,2556.00
2018-07-15T04:54:18.797Z,2588.00
2018-07-15T04:55:18.793Z,2616.00
2018-07-15T04:56:18.768Z,2644.00
2018-07-15T04:57:18.754Z,2672.00
2018-07-15T04:58:18.738Z,2684.00
2018-07-15T04:59:18.722Z,2708.00
2018-07-15T05:00:18.708Z,2728.00
2018-07-15T05:01:18.692Z,2744.00
2018-07-15T05:02:18.679Z,2772.00
2018-07-15T05:03:18.662Z,2784.00
2018-07-15T05:04:18.646Z,2800.00
2018-07-15T05:05:18.632Z,2816.00
2018-07-15T05:06:18.616Z,2840.00
2018-07-15T05:07:18.600Z,2856.00
2018-07-15T05:08:18.587Z,2880.00
2018-07-15T05:09:18.578Z,2896.00
2018-07-15T05:10:18.558Z,2916.00
2018-07-15T05:11:18.556Z,2932.00
2018-07-15T05:12:18.564Z,2956.00
2018-07-15T05:13:18.508Z,2992.00
2018-07-15T05:14:18.493Z,3036.00
2018-07-15T05:15:18.480Z,3080.00
2018-07-15T05:16:18.463Z,3112.00
2018-07-15T05:17:18.450Z,3132.00
2018-07-15T05:18:18.458Z,3160.00
2018-07-15T05:19:18.416Z,3188.00
2018-07-15T05:20:18.406Z,3212.00
2018-07-15T05:21:18.387Z,3236.00
2018-07-15T05:22:18.370Z,3260.00
2018-07-15T05:23:18.357Z,3288.00
2018-07-15T05:24:18.341Z,3312.00
2018-07-15T05:25:18.327Z,3340.00
2018-07-15T05:26:18.315Z,3376.00
2018-07-15T05:27:18.296Z,3400.00
2018-07-15T05:28:18.281Z,3432.00
2018-07-15T05:29:18.265Z,3428.00
2018-07-15T05:30:18.249Z,3464.00
2018-07-15T05:31:18.233Z,3508.00
2018-07-15T05:32:18.221Z,3548.00
2018-07-15T05:33:18.216Z,3588.00
2018-07-15T05:34:18.190Z,3604.00
2018-07-15T05:35:18.179Z,3628.00
2018-07-15T05:36:18.161Z,3656.00
2018-07-15T05:37:18.144Z,3696.00
2018-07-15T05:38:18.135Z,3704.00
2018-07-15T05:39:18.115Z,3736.00
2018-07-15T05:40:18.099Z,3844.00
2018-07-15T05:41:18.090Z,4268.00
2018-07-15T05:42:18.071Z,5796.00
2018-07-15T05:43:18.063Z,20928.00
2018-07-15T05:44:18.099Z,41088.00
2018-07-15T05:45:18.024Z,50496.00
2018-07-15T05:46:18.012Z,52704.00
2018-07-15T05:47:17.996Z,54528.00
2018-07-15T05:48:17.980Z,54368.00
2018-07-15T05:49:17.973Z,51392.00
2018-07-15T05:50:17.952Z,48256.00
2018-07-15T05:51:17.940Z,52736.00
2018-07-15T05:52:18.131Z,58752.00
2018-07-15T05:53:17.915Z,60640.00
2018-07-15T05:54:17.901Z,59840.00
2018-07-15T05:55:17.901Z,57824.00
2018-07-15T05:56:17.878Z,57632.00
2018-07-15T05:57:17.876Z,57056.00
2018-07-15T05:58:17.857Z,56480.00
2018-07-15T05:59:17.849Z,57376.00
2018-07-15T06:00:17.835Z,56448.00
2018-07-15T06:01:17.823Z,56160.00
2018-07-15T06:02:17.810Z,56128.00
2018-07-15T06:03:17.806Z,58336.00
2018-07-15T06:04:17.801Z,59968.00
2018-07-15T06:05:17.785Z,60000.00
2018-07-15T06:06:17.775Z,59520.00
2018-07-15T06:07:17.769Z,60096.00
2018-07-15T06:08:17.759Z,64608.00
2018-07-15T06:09:17.758Z,69568.00
2018-07-15T06:10:17.744Z,70560.00
2018-07-15T06:11:17.738Z,66528.00
2018-07-15T06:12:17.732Z,62368.00
2018-07-15T06:13:17.739Z,62304.00
2018-07-15T06:14:17.721Z,61408.00
2018-07-15T06:15:17.719Z,63296.00
2018-07-15T06:16:17.705Z,66368.00
2018-07-15T06:17:17.714Z,66592.00
2018-07-15T06:18:17.692Z,65088.00
2018-07-15T06:19:17.685Z,65440.00
2018-07-15T06:20:17.694Z,64608.00
2018-07-15T06:21:17.683Z,66432.00
2018-07-15T06:22:17.670Z,67808.00
2018-07-15T06:23:17.666Z,70464.00
2018-07-15T06:24:17.659Z,72320.00
2018-07-15T06:25:17.658Z,72960.00
2018-07-15T06:26:17.653Z,72512.00
2018-07-15T06:27:17.650Z,67616.00
2018-07-15T06:28:17.639Z,65792.00
2018-07-15T06:29:17.636Z,65984.00
2018-07-15T06:30:17.628Z,67552.00
2018-07-15T06:31:17.625Z,72224.00
2018-07-15T06:32:17.620Z,72608.00
2018-07-15T06:33:17.617Z,69568.00
2018-07-15T06:34:17.613Z,69376.00
2018-07-15T06:35:17.617Z,72800.00
2018-07-15T06:36:17.617Z,70752.00
2018-07-15T06:37:17.607Z,66752.00
2018-07-15T06:38:17.700Z,64224.00
2018-07-15T06:39:17.605Z,65024.00
2018-07-15T06:40:17.597Z,64384.00
2018-07-15T06:41:17.591Z,64192.00
2018-07-15T06:42:17.593Z,73280.00
2018-07-15T06:43:17.584Z,83520.00
2018-07-15T06:44:17.582Z,85504.00
2018-07-15T06:45:17.581Z,86208.00
2018-07-15T06:46:17.577Z,85952.00
2018-07-15T06:47:17.573Z,83488.00
2018-07-15T06:48:17.575Z,75648.00
2018-07-15T06:49:17.582Z,66432.00
2018-07-15T06:50:17.570Z,61376.00
2018-07-15T06:51:17.569Z,61056.00
2018-07-15T06:52:17.567Z,61600.00
2018-07-15T06:53:17.619Z,62624.00
2018-07-15T06:54:17.573Z,62816.00
2018-07-15T06:55:17.788Z,65152.00
2018-07-15T06:56:17.572Z,71360.00
2018-07-15T06:57:17.568Z,73408.00
2018-07-15T06:58:17.570Z,69504.00
2018-07-15T06:59:17.561Z,67424.00
2018-07-15T07:00:17.573Z,61088.00
2018-07-15T07:01:17.560Z,50496.00
2018-07-15T07:02:17.566Z,44992.00
2018-07-15T07:03:17.564Z,45440.00
2018-07-15T07:04:17.566Z,45952.00
2018-07-15T07:05:17.569Z,44896.00
2018-07-15T07:06:17.564Z,45408.00
2018-07-15T07:07:17.663Z,45568.00
2018-07-15T07:08:17.564Z,49856.00
2018-07-15T07:09:17.567Z,56864.00
2018-07-15T07:10:17.566Z,32960.00
2018-07-15T07:11:17.572Z,27232.00
2018-07-15T07:12:17.575Z,56736.00
2018-07-15T07:13:17.564Z,57120.00
2018-07-15T07:14:17.626Z,20384.00
2018-07-15T07:15:17.568Z,22016.00
2018-07-15T07:16:17.581Z,22304.00
2018-07-15T07:17:17.597Z,52288.00
2018-07-15T07:18:17.566Z,57248.00
2018-07-15T07:19:17.576Z,58880.00
2018-07-15T07:20:17.573Z,57920.00
2018-07-15T07:21:17.734Z,59232.00
2018-07-15T07:22:17.569Z,62240.00
2018-07-15T07:23:17.580Z,63328.00
2018-07-15T07:24:17.573Z,61600.00
2018-07-15T07:25:17.583Z,62208.00
2018-07-15T07:26:17.569Z,68000.00
2018-07-15T07:27:17.567Z,72224.00
2018-07-15T07:28:17.688Z,72192.00
2018-07-15T07:29:17.566Z,70624.00
2018-07-15T07:30:17.578Z,67936.00
2018-07-15T07:31:17.568Z,50240.00
2018-07-15T07:32:17.579Z,65152.00
2018-07-15T07:33:17.570Z,10220.00
2018-07-15T07:34:17.570Z,10416.00
2018-07-15T07:35:17.629Z,9992.00
2018-07-15T07:36:17.579Z,12740.00
2018-07-15T07:37:17.579Z,24768.00
2018-07-15T07:38:17.571Z,33600.00
2018-07-15T07:39:17.571Z,65696.00
2018-07-15T07:40:17.576Z,24288.00
2018-07-15T07:41:17.630Z,15084.00
2018-07-15T07:42:17.625Z,13380.00
2018-07-15T07:43:17.577Z,35104.00
2018-07-15T07:44:17.571Z,41120.00
2018-07-15T07:45:17.578Z,11564.00
2018-07-15T07:46:17.578Z,6208.00
2018-07-15T07:47:17.566Z,6720.00
2018-07-15T07:48:17.569Z,80512.00
2018-07-15T07:49:17.568Z,8596.00
2018-07-15T07:50:17.629Z,9392.00
2018-07-15T07:51:17.583Z,6100.00
2018-07-15T07:52:17.555Z,11484.00
2018-07-15T07:53:17.690Z,5952.00
2018-07-15T07:54:17.549Z,6132.00
2018-07-15T07:55:17.544Z,6020.00
2018-07-15T07:56:17.541Z,5664.00
2018-07-15T07:57:17.545Z,6136.00
2018-07-15T07:58:17.530Z,7360.00
2018-07-15T07:59:17.527Z,5264.00
2018-07-15T08:00:17.522Z,8092.00
2018-07-15T08:01:17.533Z,6228.00
2018-07-15T08:02:17.514Z,6688.00
2018-07-15T08:03:17.507Z,16928.00
2018-07-15T08:04:17.501Z,9944.00
2018-07-15T08:05:17.494Z,19360.00
2018-07-15T08:06:17.487Z,37824.00
2018-07-15T08:07:17.481Z,21952.00
2018-07-15T08:08:17.677Z,33504.00
2018-07-15T08:09:17.477Z,6200.00
2018-07-15T08:10:17.463Z,6660.00
2018-07-15T08:11:17.457Z,12528.00
2018-07-15T08:12:17.457Z,17696.00
2018-07-15T08:13:17.455Z,7204.00
2018-07-15T08:14:17.438Z,70592.00
2018-07-15T08:15:17.487Z,22400.00
2018-07-15T08:16:17.427Z,56672.00
2018-07-15T08:17:17.425Z,6200.00
2018-07-15T08:18:17.415Z,5432.00
2018-07-15T08:19:17.414Z,6140.00
2018-07-15T08:20:17.400Z,5164.00
2018-07-15T08:21:17.393Z,5244.00
2018-07-15T08:22:17.389Z,5224.00
2018-07-15T08:23:17.388Z,5148.00
2018-07-15T08:24:17.373Z,5368.00
2018-07-15T08:25:17.368Z,5076.00
2018-07-15T08:26:17.366Z,4984.00
2018-07-15T08:27:17.353Z,4984.00
2018-07-15T08:28:17.371Z,4972.00
2018-07-15T08:29:17.343Z,4956.00
2018-07-15T08:30:17.338Z,23904.00
2018-07-15T08:31:17.339Z,5052.00
2018-07-15T08:32:17.316Z,5104.00
2018-07-15T08:33:17.309Z,4772.00
2018-07-15T08:34:17.300Z,5284.00
2018-07-15T08:35:17.293Z,5120.00
2018-07-15T08:36:17.288Z,5192.00
2018-07-15T08:37:17.277Z,5304.00
2018-07-15T08:38:17.274Z,6528.00
2018-07-15T08:39:17.270Z,6884.00
2018-07-15T08:40:17.266Z,5496.00
2018-07-15T08:41:17.251Z,5516.00
2018-07-15T08:42:17.251Z,5436.00
2018-07-15T08:43:17.234Z,5520.00
2018-07-15T08:44:17.226Z,5220.00
2018-07-15T08:45:17.313Z,5720.00
2018-07-15T08:46:17.204Z,7216.00
2018-07-15T08:47:17.195Z,5764.00
2018-07-15T08:48:17.186Z,7292.00
2018-07-15T08:49:17.178Z,5888.00
2018-07-15T08:50:17.185Z,15408.00
2018-07-15T08:51:17.166Z,11668.00
2018-07-15T08:52:17.154Z,7528.00
2018-07-15T08:53:17.143Z,5532.00
2018-07-15T08:54:17.134Z,5124.00
2018-07-15T08:55:17.125Z,7928.00
2018-07-15T08:56:17.119Z,8420.00
2018-07-15T08:57:17.111Z,7580.00
2018-07-15T08:58:17.108Z,4796.00
2018-07-15T08:59:17.098Z,5496.00
2018-07-15T09:00:17.092Z,29568.00
2018-07-15T09:01:17.084Z,7796.00
2018-07-15T09:02:17.066Z,24064.00
2018-07-15T09:03:17.114Z,19552.00
2018-07-15T09:04:17.054Z,13652.00
2018-07-15T09:05:17.045Z,71008.00
2018-07-15T09:06:17.039Z,80384.00
2018-07-15T09:07:17.034Z,78880.00
2018-07-15T09:08:17.015Z,89664.00
2018-07-15T09:09:17.016Z,0.00
2018-07-15T09:10:16.999Z,9748.00
2018-07-15T09:11:16.991Z,13024.00
2018-07-15T09:12:16.984Z,54144.00
2018-07-15T09:13:16.979Z,17816.00
2018-07-15T09:14:16.981Z,19776.00
2018-07-15T09:15:16.974Z,31168.00
2018-07-15T09:16:16.970Z,109408.00
2018-07-15T09:17:16.950Z,116160.00
2018-07-15T09:18:16.988Z,13176.00
2018-07-15T09:19:16.936Z,19712.00
2018-07-15T09:20:16.935Z,56320.00
2018-07-15T09:21:16.950Z,29056.00
2018-07-15T09:22:16.918Z,14740.00
2018-07-15T09:25:20.036Z,20012.00
2018-07-15T09:26:20.033Z,32480.00
2018-07-15T09:27:20.027Z,34848.00
2018-07-15T09:28:22.642Z,42304.00
2018-07-15T09:30:04.254Z,23488.00
2018-07-15T09:31:04.202Z,86016.00
2018-07-15T09:32:04.181Z,92160.00
2018-07-15T09:33:04.175Z,14944.00
2018-07-15T09:34:04.176Z,9692.00
2018-07-15T09:35:04.167Z,11248.00
2018-07-15T09:36:04.156Z,27776.00
2018-07-15T09:37:04.159Z,37024.00
2018-07-15T09:38:04.150Z,10764.00
2018-07-15T09:39:04.141Z,7888.00
2018-07-15T09:40:04.140Z,10724.00
2018-07-15T09:41:04.131Z,72288.00
2018-07-15T09:42:04.127Z,39456.00
2018-07-15T09:43:04.128Z,10416.00
2018-07-15T09:44:04.122Z,11548.00
2018-07-15T09:45:04.113Z,42272.00
2018-07-15T09:46:04.106Z,12640.00
2018-07-15T09:47:04.099Z,79584.00
2018-07-15T09:48:04.144Z,88768.00
2018-07-15T09:49:04.089Z,54464.00
2018-07-15T09:50:04.101Z,35872.00
2018-07-15T09:51:04.182Z,104128.00
2018-07-15T09:52:04.090Z,7568.00
2018-07-15T09:53:04.072Z,40768.00
2018-07-15T09:54:04.071Z,17524.00
2018-07-15T09:55:04.077Z,7372.00
2018-07-15T09:56:04.061Z,8384.00
2018-07-15T09:57:04.061Z,21536.00
2018-07-15T09:58:04.051Z,9136.00
2018-07-15T09:59:04.051Z,40416.00
2018-07-15T10:00:04.047Z,34304.00
2018-07-15T10:01:04.052Z,11284.00
2018-07-15T10:02:04.048Z,15840.00
2018-07-15T10:03:04.030Z,19520.00
2018-07-15T10:04:04.025Z,104928.00
2018-07-15T10:05:04.021Z,88864.00
2018-07-15T10:06:04.018Z,65440.00
2018-07-15T10:07:04.013Z,11840.00
2018-07-15T10:08:04.016Z,112128.00
2018-07-15T10:09:04.015Z,16944.00
2018-07-15T10:10:03.999Z,99072.00
2018-07-15T10:11:04.007Z,106112.00
2018-07-15T10:12:03.993Z,112608.00
2018-07-15T10:13:03.997Z,116448.00
2018-07-15T10:14:03.994Z,117088.00
2018-07-15T10:15:03.993Z,115456.00
2018-07-15T10:16:04.001Z,119104.00
2018-07-15T10:17:03.983Z,123808.00
2018-07-15T10:18:03.990Z,18240.00
2018-07-15T10:19:04.056Z,115680.00
2018-07-15T10:20:03.996Z,107168.00
2018-07-15T10:21:04.005Z,101568.00
2018-07-15T10:22:03.991Z,100192.00
2018-07-15T10:23:03.992Z,103104.00
2018-07-15T10:24:03.987Z,101824.00
2018-07-15T10:25:03.996Z,96896.00
2018-07-15T10:26:03.990Z,93280.00
2018-07-15T10:27:03.996Z,95296.00
2018-07-15T10:28:03.994Z,98240.00
2018-07-15T10:29:04.008Z,104544.00
2018-07-15T10:30:04.018Z,105280.00
2018-07-15T10:31:04.011Z,110688.00
2018-07-15T10:32:04.011Z,115616.00
2018-07-15T10:33:04.023Z,117664.00
2018-07-15T10:34:04.028Z,116448.00
2018-07-15T10:35:04.174Z,120992.00
2018-07-15T10:36:04.035Z,127744.00
2018-07-15T10:37:04.034Z,124608.00
2018-07-15T10:38:04.050Z,118336.00
2018-07-15T10:39:04.064Z,116128.00
2018-07-15T10:40:04.063Z,117632.00
2018-07-15T10:41:04.063Z,121408.00
2018-07-15T10:42:04.067Z,120928.00
2018-07-15T10:43:04.071Z,113120.00
2018-07-15T10:44:04.082Z,107296.00
2018-07-15T10:45:04.079Z,102208.00
2018-07-15T10:46:04.085Z,98880.00
2018-07-15T10:47:04.098Z,88032.00
2018-07-15T10:48:04.097Z,83072.00
2018-07-15T10:49:04.100Z,84384.00
2018-07-15T10:50:04.124Z,88992.00
2018-07-15T10:51:04.112Z,88384.00
2018-07-15T10:52:04.127Z,80544.00
2018-07-15T10:53:04.125Z,76736.00
2018-07-15T10:54:04.129Z,85952.00
2018-07-15T10:55:04.150Z,100544.00
2018-07-15T10:56:04.145Z,107360.00
2018-07-15T10:57:04.145Z,106816.00
2018-07-15T10:58:04.161Z,106464.00
2018-07-15T10:59:04.159Z,111296.00
2018-07-15T11:00:04.162Z,115680.00
2018-07-15T11:01:04.227Z,114880.00
2018-07-15T11:02:04.174Z,107776.00
2018-07-15T11:03:04.183Z,103872.00
2018-07-15T11:04:04.187Z,102368.00
2018-07-15T11:05:04.190Z,99392.00
2018-07-15T11:06:04.198Z,100032.00
2018-07-15T11:07:04.199Z,99040.00
2018-07-15T11:08:04.209Z,96224.00
2018-07-15T11:09:04.229Z,95296.00
2018-07-15T11:10:04.218Z,97088.00
2018-07-15T11:11:04.221Z,98464.00
2018-07-15T11:12:04.238Z,103584.00
2018-07-15T11:13:04.236Z,112256.00
2018-07-15T11:14:04.248Z,113280.00
2018-07-15T11:15:04.243Z,108960.00
2018-07-15T11:16:04.258Z,104544.00
2018-07-15T11:17:04.254Z,108704.00
2018-07-15T11:18:04.264Z,109920.00
2018-07-15T11:19:04.267Z,103232.00
2018-07-15T11:20:04.273Z,96928.00
2018-07-15T11:21:04.282Z,97600.00
2018-07-15T11:22:04.294Z,104320.00
2018-07-15T11:23:04.298Z,108992.00
2018-07-15T11:24:04.297Z,111168.00
2018-07-15T11:25:04.309Z,113696.00
2018-07-15T11:26:04.425Z,111936.00
2018-07-15T11:27:04.315Z,105664.00
2018-07-15T11:28:04.323Z,96256.00
2018-07-15T11:29:04.335Z,90848.00
2018-07-15T11:30:04.335Z,92640.00
2018-07-15T11:31:04.507Z,98080.00
2018-07-15T11:32:04.349Z,103584.00
2018-07-15T11:33:04.357Z,105728.00
2018-07-15T11:34:04.362Z,106304.00
2018-07-15T11:35:04.375Z,101920.00
2018-07-15T11:36:04.373Z,94208.00
2018-07-15T11:37:04.376Z,86048.00
2018-07-15T11:38:04.393Z,84224.00
2018-07-15T11:39:04.467Z,85664.00
2018-07-15T11:40:04.394Z,86304.00
2018-07-15T11:41:04.421Z,93344.00
2018-07-15T11:42:04.409Z,96640.00
2018-07-15T11:43:04.410Z,98688.00
2018-07-15T11:44:04.419Z,100064.00
2018-07-15T11:45:04.434Z,99840.00
2018-07-15T11:46:04.438Z,99584.00
2018-07-15T11:47:04.433Z,98848.00
2018-07-15T11:48:04.468Z,92928.00
2018-07-15T11:49:04.445Z,91520.00
2018-07-15T11:50:04.440Z,86432.00
2018-07-15T11:51:04.450Z,82464.00
2018-07-15T11:52:04.458Z,59808.00
2018-07-15T11:53:04.461Z,17184.00
2018-07-15T11:54:04.455Z,5232.00
2018-07-15T11:55:04.454Z,4444.00
2018-07-15T11:56:04.461Z,4200.00
2018-07-15T11:57:04.459Z,4128.00
2018-07-15T11:58:04.467Z,4088.00
2018-07-15T11:59:04.471Z,4040.00
2018-07-15T12:00:04.462Z,3988.00
2018-07-15T12:01:04.465Z,3968.00
2018-07-15T12:02:04.464Z,3956.00
2018-07-15T12:03:04.469Z,3948.00
2018-07-15T12:04:07.097Z,3956.00
2018-07-15T12:05:04.461Z,3956.00
2018-07-15T12:06:04.465Z,3952.00
2018-07-15T12:07:04.465Z,3960.00
2018-07-15T12:08:04.453Z,3924.00
2018-07-15T12:09:04.453Z,3932.00
2018-07-15T12:10:07.480Z,3892.00
2018-07-15T12:11:04.458Z,3872.00
2018-07-15T12:12:04.440Z,3856.00
2018-07-15T12:13:04.538Z,3860.00
2018-07-15T12:14:04.440Z,3852.00
2018-07-15T12:15:04.430Z,3840.00
2018-07-15T12:16:04.426Z,3836.00